createdAt,value
2022-12-06T00:00:17.931Z,962.93
2022-12-06T00:01:18.009Z,962.91
2022-12-06T00:02:17.990Z,962.94
2022-12-06T00:03:17.880Z,962.89
2022-12-06T00:04:17.849Z,962.88
2022-12-06T00:05:17.859Z,962.89
2022-12-06T00:06:17.939Z,962.87
2022-12-06T00:07:18.008Z,962.9
2022-12-06T00:08:18.034Z,962.87
2022-12-06T00:09:17.876Z,962.88
2022-12-06T00:10:17.915Z,962.82
2022-12-06T00:11:17.979Z,962.81
2022-12-06T00:12:17.945Z,962.83
2022-12-06T00:13:18.016Z,962.79
2022-12-06T00:14:17.893Z,962.78
2022-12-06T00:15:17.952Z,962.77
2022-12-06T00:16:19.096Z,962.76
2022-12-06T00:17:17.990Z,962.78
2022-12-06T00:18:17.950Z,962.75
2022-12-06T00:19:17.893Z,962.72
2022-12-06T00:20:17.994Z,962.76
2022-12-06T00:21:17.960Z,962.74
2022-12-06T00:22:19.076Z,962.7
2022-12-06T00:23:18.040Z,962.72
2022-12-06T00:24:17.961Z,962.69
2022-12-06T00:27:18.080Z,962.7
2022-12-06T00:28:17.931Z,962.71
2022-12-06T00:29:18.013Z,962.69
2022-12-06T00:30:18.084Z,962.72
2022-12-06T00:31:18.119Z,962.7
2022-12-06T00:32:19.725Z,962.75
2022-12-06T00:33:18.486Z,962.76
2022-12-06T00:34:18.065Z,962.71
2022-12-06T00:35:18.012Z,962.72
2022-12-06T00:36:18.083Z,962.76
2022-12-06T00:37:18.116Z,962.68
2022-12-06T00:38:18.019Z,962.72
2022-12-06T00:41:18.127Z,962.7
2022-12-06T00:42:18.106Z,962.66
2022-12-06T00:43:18.056Z,962.67
2022-12-06T00:44:18.019Z,962.63
2022-12-06T00:45:17.947Z,962.6
2022-12-06T00:46:18.146Z,962.63
2022-12-06T00:47:17.961Z,962.61
2022-12-06T00:48:18.095Z,962.58
2022-12-06T00:49:18.077Z,962.61
2022-12-06T00:50:18.037Z,962.57
2022-12-06T00:51:17.972Z,962.59
2022-12-06T00:52:18.066Z,962.61
2022-12-06T00:53:18.033Z,962.53
2022-12-06T00:54:18.112Z,962.57
2022-12-06T00:55:18.080Z,962.55
2022-12-06T00:56:18.161Z,962.49
2022-12-06T00:57:17.989Z,962.52
2022-12-06T00:58:17.982Z,962.47
2022-12-06T00:59:17.989Z,962.44
2022-12-06T01:00:17.986Z,962.45
2022-12-06T01:03:18.185Z,962.48
2022-12-06T01:04:18.031Z,962.42
2022-12-06T01:05:18.159Z,962.4
2022-12-06T01:06:18.031Z,962.44
2022-12-06T01:07:18.010Z,962.43
2022-12-06T01:08:18.258Z,962.4
2022-12-06T01:09:18.017Z,962.42
2022-12-06T01:10:18.091Z,962.41
2022-12-06T01:11:18.175Z,962.42
2022-12-06T01:12:18.136Z,962.41
2022-12-06T01:13:18.093Z,962.39
2022-12-06T01:14:18.267Z,962.41
2022-12-06T01:15:18.126Z,962.46
2022-12-06T01:16:18.194Z,962.41
2022-12-06T01:17:18.270Z,962.42
2022-12-06T01:18:18.032Z,962.39
2022-12-06T01:19:18.110Z,962.43
2022-12-06T01:20:18.049Z,962.44
2022-12-06T01:22:18.029Z,962.43
2022-12-06T01:24:18.043Z,962.46
2022-12-06T01:25:18.115Z,962.45
2022-12-06T01:26:18.085Z,962.44
2022-12-06T01:28:18.121Z,962.43
2022-12-06T01:30:18.147Z,962.42
2022-12-06T01:31:18.186Z,962.47
2022-12-06T01:32:18.068Z,962.43
2022-12-06T01:33:18.146Z,962.45
2022-12-06T01:34:18.220Z,962.48
2022-12-06T01:35:18.082Z,962.46
2022-12-06T01:36:18.062Z,962.45
2022-12-06T01:37:18.269Z,962.47
2022-12-06T01:38:18.079Z,962.48
2022-12-06T01:40:18.229Z,962.46
2022-12-06T01:41:18.089Z,962.47
2022-12-06T01:42:18.098Z,962.45
2022-12-06T01:43:18.346Z,962.46
2022-12-06T01:44:21.224Z,962.49
2022-12-06T01:45:18.094Z,962.51
2022-12-06T01:46:18.113Z,962.5
2022-12-06T01:48:18.095Z,962.49
2022-12-06T01:49:18.148Z,962.48
2022-12-06T01:51:18.105Z,962.44
2022-12-06T01:52:18.098Z,962.48
2022-12-06T01:53:21.377Z,962.44
2022-12-06T01:54:18.317Z,962.46
2022-12-06T01:55:18.247Z,962.44
2022-12-06T01:56:18.217Z,962.34
2022-12-06T01:57:18.185Z,962.43
2022-12-06T01:59:18.132Z,962.44
2022-12-06T02:00:18.127Z,962.43
2022-12-06T02:01:18.304Z,962.44
2022-12-06T02:03:18.198Z,962.4
2022-12-06T02:04:18.168Z,962.42
2022-12-06T02:05:18.141Z,962.44
2022-12-06T02:06:18.148Z,962.4
2022-12-06T02:07:18.145Z,962.42
2022-12-06T02:08:18.212Z,962.41
2022-12-06T02:09:18.143Z,962.33
2022-12-06T02:10:18.157Z,962.37
2022-12-06T02:11:18.156Z,962.34
2022-12-06T02:13:18.273Z,962.31
2022-12-06T02:14:18.163Z,962.32
2022-12-06T02:15:18.217Z,962.31
2022-12-06T02:16:18.229Z,962.32
2022-12-06T02:17:18.209Z,962.33
2022-12-06T02:19:18.173Z,962.29
2022-12-06T02:20:18.172Z,962.28
2022-12-06T02:21:18.187Z,962.29
2022-12-06T02:22:18.185Z,962.27
2022-12-06T02:23:18.186Z,962.31
2022-12-06T02:25:18.271Z,962.26
2022-12-06T02:26:18.433Z,962.3
2022-12-06T02:27:18.195Z,962.25
2022-12-06T02:28:18.204Z,962.28
2022-12-06T02:29:18.264Z,962.26
2022-12-06T02:30:18.192Z,962.28
2022-12-06T02:31:18.230Z,962.24
2022-12-06T02:32:18.273Z,962.23
2022-12-06T02:33:18.203Z,962.24
2022-12-06T02:34:18.316Z,962.19
2022-12-06T02:35:18.288Z,962.22
2022-12-06T02:36:18.352Z,962.16
2022-12-06T02:37:18.309Z,962.15
2022-12-06T02:39:19.252Z,962.1
2022-12-06T02:40:18.311Z,962.12
2022-12-06T02:41:18.275Z,962.1
2022-12-06T02:42:18.246Z,962.08
2022-12-06T02:43:18.331Z,962.07
2022-12-06T02:44:18.284Z,962.08
2022-12-06T02:45:18.361Z,962.07
2022-12-06T02:46:18.363Z,962.09
2022-12-06T02:47:18.390Z,962.08
2022-12-06T02:48:18.246Z,962.09
2022-12-06T02:50:18.388Z,962.07
2022-12-06T02:51:18.352Z,962.09
2022-12-06T02:54:18.257Z,962.08
2022-12-06T02:55:18.336Z,962.06
2022-12-06T02:56:19.336Z,962.03
2022-12-06T02:57:18.376Z,962.07
2022-12-06T02:58:18.333Z,962.06
2022-12-06T02:59:18.306Z,962.01
2022-12-06T03:00:18.378Z,962.02
2022-12-06T03:01:18.414Z,962
2022-12-06T03:02:18.443Z,962.03
2022-12-06T03:03:18.383Z,962.04
2022-12-06T03:05:18.420Z,962.05
2022-12-06T03:07:18.347Z,962.06
2022-12-06T03:08:18.519Z,962.01
2022-12-06T03:09:18.388Z,962.06
2022-12-06T03:10:18.354Z,962.03
2022-12-06T03:12:18.390Z,962.04
2022-12-06T03:13:18.356Z,962.02
2022-12-06T03:14:18.297Z,962
2022-12-06T03:15:18.391Z,961.97
2022-12-06T03:16:18.399Z,961.99
2022-12-06T03:17:18.434Z,962
2022-12-06T03:19:18.371Z,961.98
2022-12-06T03:20:18.336Z,962.02
2022-12-06T03:21:18.408Z,961.98
2022-12-06T03:22:19.443Z,962.02
2022-12-06T03:23:18.317Z,961.98
2022-12-06T03:24:18.410Z,961.97
2022-12-06T03:25:18.478Z,961.98
2022-12-06T03:27:18.555Z,961.95
2022-12-06T03:28:18.481Z,961.92
2022-12-06T03:29:18.458Z,961.94
2022-12-06T03:30:18.449Z,961.86
2022-12-06T03:31:18.517Z,961.91
2022-12-06T03:33:18.416Z,961.92
2022-12-06T03:36:18.339Z,961.89
2022-12-06T03:37:18.515Z,961.79
2022-12-06T03:38:18.471Z,961.7
2022-12-06T03:39:18.431Z,961.76
2022-12-06T03:40:18.494Z,961.73
2022-12-06T03:41:18.489Z,961.7
2022-12-06T03:42:18.437Z,961.67
2022-12-06T03:43:18.611Z,961.76
2022-12-06T03:44:18.618Z,961.64
2022-12-06T03:45:18.581Z,961.74
2022-12-06T03:46:18.686Z,961.73
2022-12-06T03:47:18.393Z,961.71
2022-12-06T03:48:18.460Z,961.73
2022-12-06T03:49:18.508Z,961.76
2022-12-06T03:51:18.454Z,961.77
2022-12-06T03:52:18.508Z,961.79
2022-12-06T03:53:18.474Z,961.81
2022-12-06T03:56:18.561Z,961.82
2022-12-06T03:57:18.565Z,961.83
2022-12-06T03:58:18.518Z,961.85
2022-12-06T04:01:18.600Z,961.83
2022-12-06T04:04:18.655Z,961.8
2022-12-06T04:05:18.513Z,961.81
2022-12-06T04:06:18.563Z,961.8
2022-12-06T04:07:18.517Z,961.79
2022-12-06T04:08:18.580Z,961.8
2022-12-06T04:09:18.570Z,961.77
2022-12-06T04:10:18.528Z,961.76
2022-12-06T04:11:18.501Z,961.78
2022-12-06T04:12:18.572Z,961.75
2022-12-06T04:13:19.824Z,961.76
2022-12-06T04:14:18.630Z,961.8
2022-12-06T04:15:18.472Z,961.77
2022-12-06T04:17:18.511Z,961.8
2022-12-06T04:18:18.619Z,961.84
2022-12-06T04:19:18.530Z,961.87
2022-12-06T04:20:18.462Z,961.86
2022-12-06T04:21:18.592Z,961.89
2022-12-06T04:22:18.457Z,961.91
2022-12-06T04:24:18.466Z,961.9
2022-12-06T04:25:18.461Z,961.95
2022-12-06T04:27:18.555Z,961.92
2022-12-06T04:28:18.483Z,961.93
2022-12-06T04:29:18.465Z,961.96
2022-12-06T04:30:18.597Z,961.99
2022-12-06T04:31:21.914Z,961.95
2022-12-06T04:32:18.479Z,961.97
2022-12-06T04:33:18.609Z,961.96
2022-12-06T04:34:18.570Z,961.95
2022-12-06T04:35:20.267Z,961.93
2022-12-06T04:36:18.493Z,961.9
2022-12-06T04:37:18.565Z,961.95
2022-12-06T04:38:19.775Z,961.89
2022-12-06T04:39:20.879Z,961.93
2022-12-06T04:40:18.493Z,961.92
2022-12-06T04:41:18.646Z,961.94
2022-12-06T04:42:18.603Z,961.97
2022-12-06T04:43:18.581Z,961.94
2022-12-06T04:44:18.637Z,961.91
2022-12-06T04:46:18.620Z,961.89
2022-12-06T04:48:18.611Z,961.93
2022-12-06T04:49:18.504Z,961.89
2022-12-06T04:50:18.645Z,961.92
2022-12-06T04:51:18.609Z,961.89
2022-12-06T04:52:18.590Z,961.93
2022-12-06T04:53:18.659Z,961.89
2022-12-06T04:54:18.624Z,961.84
2022-12-06T04:55:18.584Z,961.87
2022-12-06T04:56:18.557Z,961.83
2022-12-06T04:57:18.627Z,961.85
2022-12-06T04:58:18.699Z,961.86
2022-12-06T04:59:18.535Z,961.85
2022-12-06T05:00:18.626Z,961.84
2022-12-06T05:01:18.569Z,961.85
2022-12-06T05:02:18.534Z,961.81
2022-12-06T05:05:18.669Z,961.76
2022-12-06T05:06:18.544Z,961.75
2022-12-06T05:07:18.616Z,961.74
2022-12-06T05:08:18.730Z,961.73
2022-12-06T05:09:18.649Z,961.69
2022-12-06T05:10:18.700Z,961.71
2022-12-06T05:11:18.673Z,961.66
2022-12-06T05:12:18.650Z,961.68
2022-12-06T05:13:18.711Z,961.66
2022-12-06T05:14:18.687Z,961.69
2022-12-06T05:15:18.642Z,961.63
2022-12-06T05:16:18.629Z,961.66
2022-12-06T05:17:18.688Z,961.67
2022-12-06T05:18:18.653Z,961.66
2022-12-06T05:19:20.185Z,961.56
2022-12-06T05:21:18.647Z,961.57
2022-12-06T05:22:18.621Z,961.54
2022-12-06T05:23:18.690Z,961.57
2022-12-06T05:25:18.792Z,961.55
2022-12-06T05:26:18.707Z,961.52
2022-12-06T05:30:18.841Z,961.53
2022-12-06T05:31:18.827Z,961.54
2022-12-06T05:32:18.625Z,961.52
2022-12-06T05:33:18.666Z,961.51
2022-12-06T05:34:18.739Z,961.52
2022-12-06T05:37:18.627Z,961.47
2022-12-06T05:38:18.724Z,961.45
2022-12-06T05:39:18.640Z,961.46
2022-12-06T05:40:18.740Z,961.44
2022-12-06T05:43:18.629Z,961.45
2022-12-06T05:44:18.727Z,961.44
2022-12-06T05:45:18.795Z,961.43
2022-12-06T05:46:18.710Z,961.42
2022-12-06T05:47:18.639Z,961.38
2022-12-06T05:48:18.797Z,961.41
2022-12-06T05:49:18.760Z,961.38
2022-12-06T05:50:18.642Z,961.39
2022-12-06T05:51:18.808Z,961.4
2022-12-06T05:52:18.756Z,961.33
2022-12-06T05:53:18.771Z,961.41
2022-12-06T05:54:18.684Z,961.42
2022-12-06T05:55:18.758Z,961.44
2022-12-06T05:57:18.797Z,961.42
2022-12-06T05:58:18.764Z,961.43
2022-12-06T05:59:18.734Z,961.41
2022-12-06T06:00:18.797Z,961.43
2022-12-06T06:01:18.775Z,961.45
2022-12-06T06:02:18.777Z,961.44
2022-12-06T06:03:18.918Z,961.43
2022-12-06T06:04:18.768Z,961.47
2022-12-06T06:05:19.695Z,961.37
2022-12-06T06:06:18.804Z,961.34
2022-12-06T06:09:18.809Z,961.39
2022-12-06T06:11:18.901Z,961.42
2022-12-06T06:13:19.277Z,961.43
2022-12-06T06:14:18.726Z,961.44
2022-12-06T06:15:18.713Z,961.45
2022-12-06T06:18:18.824Z,961.46
2022-12-06T06:19:18.792Z,961.43
2022-12-06T06:20:18.721Z,961.46
2022-12-06T06:21:18.825Z,961.42
2022-12-06T06:22:18.793Z,961.45
2022-12-06T06:23:18.863Z,961.44
2022-12-06T06:24:18.835Z,961.42
2022-12-06T06:25:18.810Z,961.43
2022-12-06T06:26:18.752Z,961.41
2022-12-06T06:28:18.813Z,961.43
2022-12-06T06:30:18.896Z,961.44
2022-12-06T06:31:18.855Z,961.42
2022-12-06T06:33:18.752Z,961.4
2022-12-06T06:34:18.822Z,961.37
2022-12-06T06:35:18.900Z,961.35
2022-12-06T06:37:18.877Z,961.32
2022-12-06T06:38:18.891Z,961.35
2022-12-06T06:39:18.857Z,961.32
2022-12-06T06:40:18.923Z,961.33
2022-12-06T06:41:18.890Z,961.32
2022-12-06T06:42:18.857Z,961.35
2022-12-06T06:43:18.909Z,961.32
2022-12-06T06:44:18.793Z,961.34
2022-12-06T06:45:20.594Z,961.32
2022-12-06T06:46:18.980Z,961.29
2022-12-06T06:47:18.773Z,961.33
2022-12-06T06:49:18.931Z,961.32
2022-12-06T06:50:18.924Z,961.3
2022-12-06T06:51:18.868Z,961.27
2022-12-06T06:52:18.925Z,961.28
2022-12-06T06:53:18.903Z,961.27
2022-12-06T06:54:18.860Z,961.24
2022-12-06T06:55:18.956Z,961.26
2022-12-06T06:56:18.905Z,961.24
2022-12-06T06:57:18.870Z,961.26
2022-12-06T06:58:18.946Z,961.31
2022-12-06T06:59:18.908Z,961.28
2022-12-06T07:01:18.899Z,961.24
2022-12-06T07:04:18.883Z,961.22
2022-12-06T07:05:18.917Z,961.24
2022-12-06T07:06:18.887Z,961.25
2022-12-06T07:07:21.117Z,961.28
2022-12-06T07:08:19.071Z,961.34
2022-12-06T07:09:18.887Z,961.28
2022-12-06T07:10:18.835Z,961.26
2022-12-06T07:12:19.071Z,961.29
2022-12-06T07:13:18.965Z,961.31
2022-12-06T07:14:18.948Z,961.35
2022-12-06T07:15:18.906Z,961.34
2022-12-06T07:16:19.037Z,961.35
2022-12-06T07:17:18.966Z,961.37
2022-12-06T07:18:18.995Z,961.32
2022-12-06T07:19:18.998Z,961.34
2022-12-06T07:20:18.942Z,961.35
2022-12-06T07:21:18.903Z,961.32
2022-12-06T07:22:18.972Z,961.33
2022-12-06T07:23:18.863Z,961.3
2022-12-06T07:25:18.972Z,961.28
2022-12-06T07:26:18.870Z,961.33
2022-12-06T07:27:18.897Z,961.28
2022-12-06T07:29:18.941Z,961.29
2022-12-06T07:31:18.940Z,961.34
2022-12-06T07:32:18.959Z,961.37
2022-12-06T07:34:18.879Z,961.41
2022-12-06T07:36:19.016Z,961.4
2022-12-06T07:38:18.958Z,961.38
2022-12-06T07:39:19.023Z,961.4
2022-12-06T07:40:23.519Z,961.43
2022-12-06T07:41:19.109Z,961.39
2022-12-06T07:42:18.900Z,961.4
2022-12-06T07:43:19.004Z,961.39
2022-12-06T07:44:18.973Z,961.37
2022-12-06T07:45:19.037Z,961.34
2022-12-06T07:46:18.949Z,961.36
2022-12-06T07:47:20.172Z,961.37
2022-12-06T07:48:19.034Z,961.38
2022-12-06T07:49:19.010Z,961.33
2022-12-06T07:50:20.189Z,961.35
2022-12-06T07:51:19.049Z,961.31
2022-12-06T07:52:19.019Z,961.3
2022-12-06T07:53:18.913Z,961.34
2022-12-06T07:54:18.946Z,961.44
2022-12-06T07:55:19.012Z,961.57
2022-12-06T07:56:18.934Z,961.67
2022-12-06T07:57:18.933Z,961.7
2022-12-06T07:58:19.013Z,961.58
2022-12-06T07:59:18.950Z,961.54
2022-12-06T08:00:19.056Z,961.49
2022-12-06T08:01:19.066Z,961.45
2022-12-06T08:02:18.954Z,961.39
2022-12-06T08:04:19.082Z,961.36
2022-12-06T08:06:19.092Z,961.31
2022-12-06T08:07:19.027Z,961.28
2022-12-06T08:08:21.539Z,961.25
2022-12-06T08:09:19.075Z,961.26
2022-12-06T08:11:19.118Z,961.27
2022-12-06T08:12:19.081Z,961.3
2022-12-06T08:13:19.034Z,961.29
2022-12-06T08:14:19.120Z,961.22
2022-12-06T08:15:19.078Z,961.2
2022-12-06T08:16:19.189Z,961.21
2022-12-06T08:17:18.994Z,961.2
2022-12-06T08:18:18.980Z,961.26
2022-12-06T08:19:19.044Z,961.3
2022-12-06T08:20:19.109Z,961.31
2022-12-06T08:21:19.076Z,961.28
2022-12-06T08:22:19.151Z,961.29
2022-12-06T08:23:19.000Z,961.34
2022-12-06T08:26:19.153Z,961.38
2022-12-06T08:27:19.015Z,961.42
2022-12-06T08:28:19.157Z,961.41
2022-12-06T08:29:19.121Z,961.43
2022-12-06T08:30:19.090Z,961.42
2022-12-06T08:31:19.253Z,961.43
2022-12-06T08:32:19.022Z,961.38
2022-12-06T08:33:19.009Z,961.41
2022-12-06T08:34:19.174Z,961.39
2022-12-06T08:35:19.133Z,961.38
2022-12-06T08:36:19.139Z,961.39
2022-12-06T08:37:19.188Z,961.41
2022-12-06T08:38:19.055Z,961.4
2022-12-06T08:40:20.480Z,961.37
2022-12-06T08:41:19.031Z,961.36
2022-12-06T08:42:23.671Z,961.31
2022-12-06T08:43:19.182Z,961.35
2022-12-06T08:44:19.144Z,961.34
2022-12-06T08:45:19.107Z,961.4
2022-12-06T08:46:19.083Z,961.41
2022-12-06T08:47:19.156Z,961.4
2022-12-06T08:49:19.061Z,961.39
2022-12-06T08:51:19.231Z,961.41
2022-12-06T08:54:19.220Z,961.43
2022-12-06T08:55:19.076Z,961.46
2022-12-06T08:56:19.179Z,961.43
2022-12-06T08:57:20.035Z,961.44
2022-12-06T08:58:19.075Z,961.45
2022-12-06T09:00:19.135Z,961.42
2022-12-06T09:01:19.129Z,961.47
2022-12-06T09:02:19.181Z,961.49
2022-12-06T09:03:19.232Z,961.5
2022-12-06T09:04:19.146Z,961.49
2022-12-06T09:05:19.088Z,961.5
2022-12-06T09:06:19.248Z,961.54
2022-12-06T09:07:19.089Z,961.53
2022-12-06T09:08:19.135Z,961.55
2022-12-06T09:09:19.245Z,961.53
2022-12-06T09:11:19.203Z,961.56
2022-12-06T09:12:19.243Z,961.52
2022-12-06T09:13:19.100Z,961.53
2022-12-06T09:14:21.749Z,961.54
2022-12-06T09:15:19.113Z,961.53
2022-12-06T09:17:19.238Z,961.55
2022-12-06T09:18:19.260Z,961.57
2022-12-06T09:19:19.232Z,961.55
2022-12-06T09:20:19.124Z,961.56
2022-12-06T09:22:19.225Z,961.53
2022-12-06T09:23:19.199Z,961.55
2022-12-06T09:24:19.126Z,961.57
2022-12-06T09:25:19.236Z,961.54
2022-12-06T09:26:19.303Z,961.52
2022-12-06T09:27:19.155Z,961.56
2022-12-06T09:28:19.240Z,961.53
2022-12-06T09:29:19.201Z,961.56
2022-12-06T09:30:19.354Z,961.52
2022-12-06T09:31:19.304Z,961.51
2022-12-06T09:32:19.407Z,961.53
2022-12-06T09:33:19.169Z,961.5
2022-12-06T09:35:23.674Z,961.45
2022-12-06T09:36:19.165Z,961.42
2022-12-06T09:37:19.165Z,961.4
2022-12-06T09:38:19.210Z,961.39
2022-12-06T09:39:19.169Z,961.37
2022-12-06T09:40:19.252Z,961.34
2022-12-06T09:41:19.319Z,961.29
2022-12-06T09:43:19.299Z,961.31
2022-12-06T09:44:20.261Z,961.3
2022-12-06T09:46:19.295Z,961.31
2022-12-06T09:47:19.333Z,961.24
2022-12-06T09:48:19.294Z,961.29
2022-12-06T09:51:19.305Z,961.28
2022-12-06T09:52:19.267Z,961.29
2022-12-06T09:53:19.343Z,961.3
2022-12-06T09:54:19.309Z,961.29
2022-12-06T09:56:20.351Z,961.26
2022-12-06T09:57:19.317Z,961.22
2022-12-06T09:58:19.273Z,961.21
2022-12-06T09:59:19.357Z,961.22
2022-12-06T10:00:22.524Z,961.23
2022-12-06T10:02:20.396Z,961.21
2022-12-06T10:03:19.335Z,961.23
2022-12-06T10:04:19.277Z,961.22
2022-12-06T10:05:19.230Z,961.27
2022-12-06T10:06:19.392Z,961.24
2022-12-06T10:07:19.288Z,961.25
2022-12-06T10:10:19.396Z,961.23
2022-12-06T10:12:19.328Z,961.24
2022-12-06T10:13:19.391Z,961.23
2022-12-06T10:15:19.334Z,961.25
2022-12-06T10:17:19.373Z,961.23
2022-12-06T10:18:19.337Z,961.24
2022-12-06T10:19:19.405Z,961.22
2022-12-06T10:21:19.253Z,961.21
2022-12-06T10:24:19.389Z,961.23
2022-12-06T10:25:19.415Z,961.22
2022-12-06T10:26:19.267Z,961.24
2022-12-06T10:27:19.354Z,961.23
2022-12-06T10:28:19.282Z,961.19
2022-12-06T10:30:19.341Z,961.16
2022-12-06T10:31:19.375Z,961.15
2022-12-06T10:35:19.445Z,961.14
2022-12-06T10:37:19.449Z,961.16
2022-12-06T10:38:19.301Z,961.17
2022-12-06T10:39:19.467Z,961.15
2022-12-06T10:40:19.311Z,961.13
2022-12-06T10:41:19.314Z,961.1
2022-12-06T10:42:19.323Z,961.09
2022-12-06T10:43:19.321Z,961.07
2022-12-06T10:44:19.405Z,961.03
2022-12-06T10:45:24.739Z,961.08
2022-12-06T10:46:19.522Z,961.07
2022-12-06T10:48:19.329Z,961.04
2022-12-06T10:49:19.332Z,961.06
2022-12-06T10:50:19.475Z,961
2022-12-06T10:51:19.591Z,961.07
2022-12-06T10:52:19.461Z,961.02
2022-12-06T10:53:19.438Z,960.97
2022-12-06T10:54:19.503Z,960.94
2022-12-06T10:55:19.466Z,960.91
2022-12-06T10:56:19.418Z,960.9
2022-12-06T10:58:19.452Z,960.89
2022-12-06T10:59:19.422Z,960.92
2022-12-06T11:00:19.692Z,960.86
2022-12-06T11:01:19.511Z,960.89
2022-12-06T11:02:19.464Z,960.86
2022-12-06T11:03:20.650Z,960.89
2022-12-06T11:04:19.456Z,960.9
2022-12-06T11:05:19.432Z,960.92
2022-12-06T11:06:19.499Z,960.91
2022-12-06T11:07:19.378Z,960.95
2022-12-06T11:08:19.474Z,960.98
2022-12-06T11:09:19.511Z,960.96
2022-12-06T11:10:19.419Z,960.94
2022-12-06T11:11:19.452Z,960.97
2022-12-06T11:12:19.514Z,960.96
2022-12-06T11:13:19.476Z,960.91
2022-12-06T11:14:19.549Z,960.87
2022-12-06T11:15:19.391Z,960.88
2022-12-06T11:16:19.575Z,960.89
2022-12-06T11:17:19.554Z,960.9
2022-12-06T11:18:19.410Z,960.91
2022-12-06T11:19:19.387Z,960.9
2022-12-06T11:20:19.458Z,960.89
2022-12-06T11:21:19.407Z,960.85
2022-12-06T11:22:19.516Z,960.83
2022-12-06T11:23:19.461Z,960.85
2022-12-06T11:25:19.583Z,960.83
2022-12-06T11:27:19.559Z,960.81
2022-12-06T11:28:19.501Z,960.79
2022-12-06T11:30:20.408Z,960.78
2022-12-06T11:31:19.691Z,960.79
2022-12-06T11:32:19.446Z,960.75
2022-12-06T11:33:19.544Z,960.77
2022-12-06T11:34:19.509Z,960.78
2022-12-06T11:35:19.580Z,960.75
2022-12-06T11:36:19.557Z,960.77
2022-12-06T11:39:19.564Z,960.75
2022-12-06T11:40:19.614Z,960.76
2022-12-06T11:42:19.561Z,960.73
2022-12-06T11:43:19.526Z,960.74
2022-12-06T11:44:19.594Z,960.76
2022-12-06T11:45:19.553Z,960.75
2022-12-06T11:46:19.571Z,960.72
2022-12-06T11:47:19.480Z,960.74
2022-12-06T11:49:19.479Z,960.72
2022-12-06T11:50:19.481Z,960.73
2022-12-06T11:51:19.576Z,960.7
2022-12-06T11:52:19.492Z,960.67
2022-12-06T11:53:19.599Z,960.65
2022-12-06T11:54:19.567Z,960.61
2022-12-06T11:55:19.503Z,960.59
2022-12-06T11:56:19.644Z,960.57
2022-12-06T11:57:22.584Z,960.55
2022-12-06T11:58:19.646Z,960.59
2022-12-06T11:59:19.489Z,960.47
2022-12-06T12:00:19.581Z,960.53
2022-12-06T12:01:19.495Z,960.54
2022-12-06T12:02:19.760Z,960.55
2022-12-06T12:03:19.657Z,960.51
2022-12-06T12:04:19.667Z,960.56
2022-12-06T12:05:19.616Z,960.51
2022-12-06T12:06:19.604Z,960.47
2022-12-06T12:07:19.655Z,960.52
2022-12-06T12:08:19.724Z,960.51
2022-12-06T12:09:19.701Z,960.53
2022-12-06T12:10:19.657Z,960.54
2022-12-06T12:11:19.627Z,960.4
2022-12-06T12:12:19.525Z,960.48
2022-12-06T12:13:19.519Z,960.5
2022-12-06T12:14:19.628Z,960.47
2022-12-06T12:15:19.594Z,960.49
2022-12-06T12:16:19.749Z,960.45
2022-12-06T12:17:19.636Z,960.47
2022-12-06T12:19:19.669Z,960.46
2022-12-06T12:21:19.554Z,960.43
2022-12-06T12:22:19.684Z,960.4
2022-12-06T12:23:19.636Z,960.42
2022-12-06T12:24:19.718Z,960.37
2022-12-06T12:25:20.160Z,960.42
2022-12-06T12:26:19.556Z,960.37
2022-12-06T12:27:23.285Z,960.38
2022-12-06T12:28:19.676Z,960.39
2022-12-06T12:29:19.653Z,960.4
2022-12-06T12:30:19.719Z,960.35
2022-12-06T12:31:19.783Z,960.32
2022-12-06T12:32:19.724Z,960.27
2022-12-06T12:33:19.618Z,960.25
2022-12-06T12:34:19.680Z,960.26
2022-12-06T12:35:19.655Z,960.28
2022-12-06T12:36:19.733Z,960.27
2022-12-06T12:37:19.681Z,960.26
2022-12-06T12:38:19.653Z,960.29
2022-12-06T12:39:19.595Z,960.3
2022-12-06T12:40:19.596Z,960.26
2022-12-06T12:42:19.602Z,960.25
2022-12-06T12:43:19.697Z,960.24
2022-12-06T12:44:36.822Z,960.23
2022-12-06T12:46:19.745Z,960.21
2022-12-06T12:47:19.883Z,960.2
2022-12-06T12:48:19.629Z,960.21
2022-12-06T12:50:19.658Z,960.18
2022-12-06T12:52:19.836Z,960.26
2022-12-06T12:53:19.703Z,960.22
2022-12-06T12:55:19.731Z,960.19
2022-12-06T12:56:19.799Z,960.21
2022-12-06T12:58:19.846Z,960.22
2022-12-06T12:59:19.689Z,960.23
2022-12-06T13:00:19.654Z,960.22
2022-12-06T13:01:19.790Z,960.24
2022-12-06T13:03:49.329Z,960.23
2022-12-06T13:04:19.854Z,960.22
2022-12-06T13:05:33.094Z,960.23
2022-12-06T13:07:19.872Z,960.22
2022-12-06T13:08:19.811Z,960.25
2022-12-06T13:09:19.787Z,960.27
2022-12-06T13:10:19.765Z,960.25
2022-12-06T13:11:19.808Z,960.24
2022-12-06T13:12:19.794Z,960.25
2022-12-06T13:14:19.824Z,960.24
2022-12-06T13:16:19.922Z,960.19
2022-12-06T13:17:19.745Z,960.11
2022-12-06T13:18:19.779Z,960.12
2022-12-06T13:19:19.752Z,960.11
2022-12-06T13:21:19.784Z,960.05
2022-12-06T13:22:19.862Z,960.07
2022-12-06T13:23:19.827Z,960.1
2022-12-06T13:24:19.794Z,960.07
2022-12-06T13:25:19.754Z,960.06
2022-12-06T13:26:19.728Z,960.08
2022-12-06T13:27:19.698Z,960.14
2022-12-06T13:28:20.868Z,960.23
2022-12-06T13:29:19.825Z,960.28
2022-12-06T13:30:19.853Z,960.31
2022-12-06T13:31:19.858Z,960.22
2022-12-06T13:32:19.713Z,960.19
2022-12-06T13:33:21.280Z,960.12
2022-12-06T13:34:19.918Z,960.09
2022-12-06T13:35:19.840Z,960.07
2022-12-06T13:36:19.811Z,960.02
2022-12-06T13:37:19.872Z,960.01
2022-12-06T13:39:19.818Z,959.98
2022-12-06T13:40:20.922Z,959.96
2022-12-06T13:41:19.851Z,959.97
2022-12-06T13:42:19.814Z,959.93
2022-12-06T13:43:19.734Z,959.91
2022-12-06T13:44:19.853Z,959.87
2022-12-06T13:46:19.973Z,959.86
2022-12-06T13:47:19.871Z,959.84
2022-12-06T13:48:19.819Z,959.82
2022-12-06T13:49:19.899Z,959.88
2022-12-06T13:50:19.858Z,959.86
2022-12-06T13:51:19.831Z,959.87
2022-12-06T13:52:19.895Z,959.85
2022-12-06T13:53:19.863Z,959.97
2022-12-06T13:55:19.975Z,959.95
2022-12-06T13:56:19.893Z,959.93
2022-12-06T13:57:19.942Z,959.94
2022-12-06T13:58:19.784Z,959.89
2022-12-06T13:59:19.876Z,959.87
2022-12-06T14:00:19.848Z,959.85
2022-12-06T14:01:19.936Z,959.77
2022-12-06T14:02:19.814Z,959.76
2022-12-06T14:03:19.851Z,959.77
2022-12-06T14:04:19.799Z,959.73
2022-12-06T14:05:19.928Z,959.71
2022-12-06T14:06:20.081Z,959.69
2022-12-06T14:07:20.070Z,959.65
2022-12-06T14:08:19.963Z,959.68
2022-12-06T14:09:19.951Z,959.69
2022-12-06T14:10:19.824Z,959.68
2022-12-06T14:11:19.885Z,959.7
2022-12-06T14:12:19.810Z,959.73
2022-12-06T14:13:19.931Z,959.71
2022-12-06T14:14:19.809Z,959.73
2022-12-06T14:15:19.953Z,959.72
2022-12-06T14:16:19.941Z,959.7
2022-12-06T14:18:19.960Z,959.69
2022-12-06T14:20:20.001Z,959.74
2022-12-06T14:21:19.861Z,959.66
2022-12-06T14:22:19.937Z,959.75
2022-12-06T14:23:19.915Z,959.7
2022-12-06T14:24:19.976Z,959.72
2022-12-06T14:25:19.939Z,959.73
2022-12-06T14:26:19.913Z,959.76
2022-12-06T14:29:20.008Z,959.77
2022-12-06T14:30:25.415Z,959.73
2022-12-06T14:31:20.035Z,959.78
2022-12-06T14:33:19.956Z,959.77
2022-12-06T14:34:19.965Z,959.81
2022-12-06T14:35:20.018Z,959.78
2022-12-06T14:36:19.994Z,959.79
2022-12-06T14:37:19.870Z,959.8
2022-12-06T14:39:19.945Z,959.77
2022-12-06T14:40:44.274Z,959.8
2022-12-06T14:41:21.335Z,959.78
2022-12-06T14:42:19.997Z,959.8
2022-12-06T14:43:19.883Z,959.79
2022-12-06T14:44:20.042Z,959.78
2022-12-06T14:45:20.014Z,959.79
2022-12-06T14:46:19.995Z,959.78
2022-12-06T14:47:19.913Z,959.79
2022-12-06T14:48:20.132Z,959.8
2022-12-06T14:49:19.907Z,959.78
2022-12-06T14:50:21.267Z,959.81